Hialeah, Florida
Current Conditions -  °F | °C
As of 10:53 AM on Sunday 23 Nov 2014 (Local Time) from KMIA Reporting Station
Broken Clouds Broken Clouds  
Wind Chill: 82°   Ceiling: 2300
Heat Index: 87°   Visibility: 10mi
Dew Point: 72°   Wind: 16mph
Humidity: 71%   Direction: 140°SE
Pressure: 30.03"   Gusts: 25mph
Location:  25.86°N, 80.29°W
Report Text: KMIA 231553Z 14014G22KT 10SM BKN023 28/22 A3003 RMK AO2 SLP169 T02780222
Loading
Personal Weather Stations






























Interactive Weather Map New forecast layout! Learn more

10-Day Weather Forecast

Advertisements
Track Severe Weather on mobile